Impacts TAF Board
For situational awareness. Not to be used for flight planning purposes.
IDs:

KPDX - Portland Intl Arpt, OR, US

Issued at 1129 UTC 10 Jul 2020
Updated at 1255 UTC 10 Jul 2020
Potential Impact None Slight Moderate High
Time1253Z 10/13Z 10/14Z 10/15Z 10/16Z 10/17Z 10/18Z 10/19Z 10/20Z 10/21Z 10/22Z 10/23Z 11/00Z 11/01Z>>
Type OBS PRVL PRVL PRVL PRVL PRVL PRVL PRVL PRVL PRVL PRVL PRVL PRVL PRVL
VIS 10 >6 >6 >6 >6 >6 >6 >6 >6 >6 >6 >6 >6 >6
CIG 44 50 50 25 25 50 50 50 50 -- -- -- -- --
Cover BKN OVC OVC OVC OVC BKN BKN BKN BKN SCT SCT SCT SCT SCT
FltCat VFR VFR VFR MVFR MVFR VFR VFR VFR VFR VFR VFR VFR VFR VFR
WX -- -- -- -- -- -- -- -- -- -- -- -- -- --
WDir 340 300 300 300 300 310 310 310 310 340 340 340 340 340
WSpd 4 4 4 5 5 5 5 5 5 6 6 6 6 6
WGst -- -- -- -- -- -- -- -- -- -- -- -- -- --
Raw TAF
KPDX 101129Z 1012/1112 30004KT P6SM FEW025 OVC050
  FM101500 30005KT P6SM BKN025 OVC050
  FM101700 31005KT P6SM SCT025 BKN050
  FM102100 34006KT P6SM SCT050
  FM111100 31003KT P6SM SCT025 BKN040


Raw METAR
KPDX 101253Z 34004KT 10SM FEW022 BKN044 14/10 A3015 RMK AO2 SLP208 T01440100
KPDX 101153Z 32005KT 10SM BKN041 14/10 A3014 RMK AO2 SLP203 T01440100 10183 20144 53014
KPDX 101053Z 32008KT 10SM BKN044 15/10 A3012 RMK AO2 SLP198 T01500100
KPDX 100953Z 31005KT 10SM SCT042 15/11 A3011 RMK AO2 SLP194 T01500106

METAR Board
Radar Display
Forecast Discussion
For situational awareness. Not to be used for flight planning purposes.